sensor_id;sensor_type;location;lat;lon;timestamp;P1;durP1;ratioP1;P2;durP2;ratioP2
7571;SDS011;3827;49.928;8.548;2023-03-21T00:02:24;4.00;;;3.50;;
7571;SDS011;3827;49.928;8.548;2023-03-21T00:04:51;4.80;;;3.60;;
7571;SDS011;3827;49.928;8.548;2023-03-21T00:07:19;4.00;;;3.60;;
7571;SDS011;3827;49.928;8.548;2023-03-21T00:09:46;5.10;;;3.78;;
7571;SDS011;3827;49.928;8.548;2023-03-21T00:12:13;5.07;;;3.72;;
7571;SDS011;3827;49.928;8.548;2023-03-21T00:14:41;4.00;;;3.60;;
7571;SDS011;3827;49.928;8.548;2023-03-21T00:17:08;3.65;;;3.33;;
7571;SDS011;3827;49.928;8.548;2023-03-21T00:19:35;3.78;;;3.47;;
7571;SDS011;3827;49.928;8.548;2023-03-21T00:22:03;3.97;;;3.50;;
7571;SDS011;3827;49.928;8.548;2023-03-21T00:24:31;4.00;;;3.60;;
7571;SDS011;3827;49.928;8.548;2023-03-21T00:26:58;3.90;;;3.42;;
7571;SDS011;3827;49.928;8.548;2023-03-21T00:29:25;4.30;;;3.30;;
7571;SDS011;3827;49.928;8.548;2023-03-21T00:31:52;4.60;;;3.60;;
7571;SDS011;3827;49.928;8.548;2023-03-21T00:34:18;3.60;;;3.30;;
7571;SDS011;3827;49.928;8.548;2023-03-21T00:36:45;3.80;;;3.40;;
7571;SDS011;3827;49.928;8.548;2023-03-21T00:39:12;4.85;;;4.05;;
7571;SDS011;3827;49.928;8.548;2023-03-21T00:41:40;5.25;;;3.80;;
7571;SDS011;3827;49.928;8.548;2023-03-21T00:44:07;4.78;;;3.58;;
7571;SDS011;3827;49.928;8.548;2023-03-21T00:46:35;4.60;;;3.77;;
7571;SDS011;3827;49.928;8.548;2023-03-21T00:49:02;4.97;;;3.90;;
7571;SDS011;3827;49.928;8.548;2023-03-21T00:51:29;4.28;;;3.67;;
7571;SDS011;3827;49.928;8.548;2023-03-21T00:53:56;3.80;;;3.42;;
7571;SDS011;3827;49.928;8.548;2023-03-21T00:56:23;4.68;;;3.45;;
7571;SDS011;3827;49.928;8.548;2023-03-21T00:58:52;5.10;;;3.67;;
7571;SDS011;3827;49.928;8.548;2023-03-21T01:01:18;3.83;;;3.53;;
7571;SDS011;3827;49.928;8.548;2023-03-21T01:03:45;3.88;;;3.47;;
7571;SDS011;3827;49.928;8.548;2023-03-21T01:06:15;3.95;;;3.40;;
7571;SDS011;3827;49.928;8.548;2023-03-21T01:08:45;3.53;;;3.22;;
7571;SDS011;3827;49.928;8.548;2023-03-21T01:11:13;4.20;;;3.28;;
7571;SDS011;3827;49.928;8.548;2023-03-21T01:13:41;4.30;;;3.63;;
7571;SDS011;3827;49.928;8.548;2023-03-21T01:16:10;3.95;;;3.35;;
7571;SDS011;3827;49.928;8.548;2023-03-21T01:18:37;4.05;;;3.50;;
7571;SDS011;3827;49.928;8.548;2023-03-21T01:21:07;4.57;;;3.70;;
7571;SDS011;3827;49.928;8.548;2023-03-21T01:23:36;4.97;;;3.65;;
7571;SDS011;3827;49.928;8.548;2023-03-21T01:26:04;4.13;;;3.50;;
7571;SDS011;3827;49.928;8.548;2023-03-21T01:28:32;4.45;;;4.05;;
7571;SDS011;3827;49.928;8.548;2023-03-21T01:31:01;5.15;;;3.83;;
7571;SDS011;3827;49.928;8.548;2023-03-21T01:33:31;4.50;;;3.55;;
7571;SDS011;3827;49.928;8.548;2023-03-21T01:35:59;6.00;;;3.80;;
7571;SDS011;3827;49.928;8.548;2023-03-21T01:38:26;5.10;;;3.78;;
7571;SDS011;3827;49.928;8.548;2023-03-21T01:40:53;4.78;;;3.80;;
7571;SDS011;3827;49.928;8.548;2023-03-21T01:43:24;4.18;;;3.78;;
7571;SDS011;3827;49.928;8.548;2023-03-21T01:49:03;6.28;;;4.40;;
7571;SDS011;3827;49.928;8.548;2023-03-21T01:51:38;4.65;;;3.90;;
7571;SDS011;3827;49.928;8.548;2023-03-21T01:54:09;3.97;;;3.58;;
7571;SDS011;3827;49.928;8.548;2023-03-21T01:56:40;5.60;;;3.95;;
7571;SDS011;3827;49.928;8.548;2023-03-21T01:59:11;4.40;;;4.00;;
7571;SDS011;3827;49.928;8.548;2023-03-21T02:01:42;4.20;;;3.80;;
7571;SDS011;3827;49.928;8.548;2023-03-21T02:04:11;5.65;;;4.25;;
7571;SDS011;3827;49.928;8.548;2023-03-21T02:06:40;4.47;;;4.03;;
7571;SDS011;3827;49.928;8.548;2023-03-21T02:09:13;4.88;;;4.38;;
7571;SDS011;3827;49.928;8.548;2023-03-21T02:11:43;4.88;;;4.40;;
7571;SDS011;3827;49.928;8.548;2023-03-21T02:14:12;6.22;;;4.70;;
7571;SDS011;3827;49.928;8.548;2023-03-21T02:16:45;4.60;;;4.18;;
7571;SDS011;3827;49.928;8.548;2023-03-21T02:19:28;4.88;;;4.38;;
7571;SDS011;3827;49.928;8.548;2023-03-21T02:22:22;4.75;;;4.35;;
7571;SDS011;3827;49.928;8.548;2023-03-21T02:28:13;4.85;;;4.25;;
7571;SDS011;3827;49.928;8.548;2023-03-21T02:30:49;4.50;;;4.10;;
7571;SDS011;3827;49.928;8.548;2023-03-21T02:36:27;5.25;;;4.00;;
7571;SDS011;3827;49.928;8.548;2023-03-21T02:39:13;4.60;;;4.20;;
7571;SDS011;3827;49.928;8.548;2023-03-21T02:41:48;4.43;;;3.97;;
7571;SDS011;3827;49.928;8.548;2023-03-21T02:44:20;4.93;;;4.43;;
7571;SDS011;3827;49.928;8.548;2023-03-21T02:46:52;6.05;;;4.60;;
7571;SDS011;3827;49.928;8.548;2023-03-21T02:49:23;4.90;;;4.40;;
7571;SDS011;3827;49.928;8.548;2023-03-21T02:51:56;5.00;;;4.45;;
7571;SDS011;3827;49.928;8.548;2023-03-21T02:54:24;4.70;;;4.30;;
7571;SDS011;3827;49.928;8.548;2023-03-21T02:56:52;4.30;;;3.72;;
7571;SDS011;3827;49.928;8.548;2023-03-21T02:59:22;4.40;;;4.00;;
7571;SDS011;3827;49.928;8.548;2023-03-21T03:01:51;4.70;;;4.30;;
7571;SDS011;3827;49.928;8.548;2023-03-21T03:04:20;4.95;;;4.50;;
7571;SDS011;3827;49.928;8.548;2023-03-21T03:06:53;4.80;;;4.40;;
7571;SDS011;3827;49.928;8.548;2023-03-21T03:09:39;6.63;;;4.75;;
7571;SDS011;3827;49.928;8.548;2023-03-21T03:12:19;5.72;;;5.00;;
7571;SDS011;3827;49.928;8.548;2023-03-21T03:14:54;6.05;;;4.78;;
7571;SDS011;3827;49.928;8.548;2023-03-21T03:17:31;5.32;;;4.82;;
7571;SDS011;3827;49.928;8.548;2023-03-21T03:20:14;5.38;;;4.88;;
7571;SDS011;3827;49.928;8.548;2023-03-21T03:22:51;5.70;;;5.18;;
7571;SDS011;3827;49.928;8.548;2023-03-21T03:25:23;5.70;;;5.10;;
7571;SDS011;3827;49.928;8.548;2023-03-21T03:27:55;5.80;;;5.15;;
7571;SDS011;3827;49.928;8.548;2023-03-21T03:30:24;5.47;;;4.97;;
7571;SDS011;3827;49.928;8.548;2023-03-21T03:32:52;5.40;;;4.90;;
7571;SDS011;3827;49.928;8.548;2023-03-21T03:35:22;5.50;;;5.00;;
7571;SDS011;3827;49.928;8.548;2023-03-21T03:37:52;5.15;;;4.72;;
7571;SDS011;3827;49.928;8.548;2023-03-21T03:40:23;5.38;;;4.88;;
7571;SDS011;3827;49.928;8.548;2023-03-21T03:42:55;5.75;;;5.20;;
7571;SDS011;3827;49.928;8.548;2023-03-21T03:45:27;5.60;;;5.10;;
7571;SDS011;3827;49.928;8.548;2023-03-21T03:48:00;6.13;;;5.33;;
7571;SDS011;3827;49.928;8.548;2023-03-21T03:50:32;6.40;;;5.50;;
7571;SDS011;3827;49.928;8.548;2023-03-21T03:53:05;5.97;;;5.38;;
7571;SDS011;3827;49.928;8.548;2023-03-21T03:55:41;6.05;;;5.47;;
7571;SDS011;3827;49.928;8.548;2023-03-21T03:58:09;6.40;;;5.35;;
7571;SDS011;3827;49.928;8.548;2023-03-21T04:00:37;5.57;;;5.07;;
7571;SDS011;3827;49.928;8.548;2023-03-21T04:03:05;5.60;;;5.07;;
7571;SDS011;3827;49.928;8.548;2023-03-21T04:05:33;6.30;;;5.57;;
7571;SDS011;3827;49.928;8.548;2023-03-21T04:08:00;5.72;;;5.13;;
7571;SDS011;3827;49.928;8.548;2023-03-21T04:10:29;6.22;;;5.63;;
7571;SDS011;3827;49.928;8.548;2023-03-21T04:12:55;5.68;;;5.07;;
7571;SDS011;3827;49.928;8.548;2023-03-21T04:15:22;5.43;;;4.90;;
7571;SDS011;3827;49.928;8.548;2023-03-21T04:17:49;5.75;;;5.25;;
7571;SDS011;3827;49.928;8.548;2023-03-21T04:20:16;5.85;;;5.32;;
7571;SDS011;3827;49.928;8.548;2023-03-21T04:22:43;5.47;;;4.97;;
7571;SDS011;3827;49.928;8.548;2023-03-21T04:25:10;6.13;;;5.53;;
7571;SDS011;3827;49.928;8.548;2023-03-21T04:27:38;6.40;;;5.57;;
7571;SDS011;3827;49.928;8.548;2023-03-21T04:30:06;6.38;;;5.38;;
7571;SDS011;3827;49.928;8.548;2023-03-21T04:32:36;5.60;;;5.10;;
7571;SDS011;3827;49.928;8.548;2023-03-21T04:35:03;5.47;;;4.97;;
7571;SDS011;3827;49.928;8.548;2023-03-21T04:37:32;5.82;;;5.20;;
7571;SDS011;3827;49.928;8.548;2023-03-21T04:40:01;5.82;;;5.00;;
7571;SDS011;3827;49.928;8.548;2023-03-21T04:42:32;5.60;;;5.10;;
7571;SDS011;3827;49.928;8.548;2023-03-21T04:45:01;5.60;;;5.10;;
7571;SDS011;3827;49.928;8.548;2023-03-21T04:47:29;6.43;;;5.72;;
7571;SDS011;3827;49.928;8.548;2023-03-21T04:49:55;6.55;;;5.47;;
7571;SDS011;3827;49.928;8.548;2023-03-21T04:52:22;7.67;;;5.30;;
7571;SDS011;3827;49.928;8.548;2023-03-21T04:54:49;7.20;;;5.45;;
7571;SDS011;3827;49.928;8.548;2023-03-21T04:57:16;6.20;;;5.45;;
7571;SDS011;3827;49.928;8.548;2023-03-21T04:59:43;5.97;;;5.18;;
7571;SDS011;3827;49.928;8.548;2023-03-21T05:02:11;6.63;;;5.30;;
7571;SDS011;3827;49.928;8.548;2023-03-21T05:04:39;7.75;;;5.00;;
7571;SDS011;3827;49.928;8.548;2023-03-21T05:07:06;6.87;;;5.40;;
7571;SDS011;3827;49.928;8.548;2023-03-21T05:09:33;5.50;;;5.00;;
7571;SDS011;3827;49.928;8.548;2023-03-21T05:12:00;5.93;;;5.32;;
7571;SDS011;3827;49.928;8.548;2023-03-21T05:14:27;6.23;;;5.10;;
7571;SDS011;3827;49.928;8.548;2023-03-21T05:17:03;6.30;;;5.20;;
7571;SDS011;3827;49.928;8.548;2023-03-21T05:19:31;5.65;;;5.15;;
7571;SDS011;3827;49.928;8.548;2023-03-21T05:22:00;5.60;;;5.10;;
7571;SDS011;3827;49.928;8.548;2023-03-21T05:24:29;6.03;;;5.40;;
7571;SDS011;3827;49.928;8.548;2023-03-21T05:26:57;6.03;;;5.43;;
7571;SDS011;3827;49.928;8.548;2023-03-21T05:29:26;6.38;;;5.50;;
7571;SDS011;3827;49.928;8.548;2023-03-21T05:31:54;6.90;;;5.80;;
7571;SDS011;3827;49.928;8.548;2023-03-21T05:34:21;6.72;;;5.47;;
7571;SDS011;3827;49.928;8.548;2023-03-21T05:36:52;6.13;;;5.53;;
7571;SDS011;3827;49.928;8.548;2023-03-21T05:39:19;5.95;;;5.35;;
7571;SDS011;3827;49.928;8.548;2023-03-21T05:41:47;6.10;;;5.38;;
7571;SDS011;3827;49.928;8.548;2023-03-21T05:44:14;6.22;;;5.50;;
7571;SDS011;3827;49.928;8.548;2023-03-21T05:46:41;5.88;;;5.35;;
7571;SDS011;3827;49.928;8.548;2023-03-21T05:49:08;5.55;;;5.00;;
7571;SDS011;3827;49.928;8.548;2023-03-21T05:51:36;6.78;;;5.43;;
7571;SDS011;3827;49.928;8.548;2023-03-21T05:54:04;6.22;;;5.60;;
7571;SDS011;3827;49.928;8.548;2023-03-21T05:56:31;5.53;;;5.03;;
7571;SDS011;3827;49.928;8.548;2023-03-21T05:58:58;5.70;;;5.20;;
7571;SDS011;3827;49.928;8.548;2023-03-21T06:01:25;5.78;;;5.28;;
7571;SDS011;3827;49.928;8.548;2023-03-21T06:03:52;5.82;;;5.32;;
7571;SDS011;3827;49.928;8.548;2023-03-21T06:06:18;6.55;;;5.78;;
7571;SDS011;3827;49.928;8.548;2023-03-21T06:08:45;6.57;;;5.85;;
7571;SDS011;3827;49.928;8.548;2023-03-21T06:11:17;6.40;;;5.40;;
7571;SDS011;3827;49.928;8.548;2023-03-21T06:13:48;6.82;;;5.97;;
7571;SDS011;3827;49.928;8.548;2023-03-21T06:16:15;6.53;;;5.93;;
7571;SDS011;3827;49.928;8.548;2023-03-21T06:18:42;7.25;;;5.45;;
7571;SDS011;3827;49.928;8.548;2023-03-21T06:21:09;8.50;;;7.03;;
7571;SDS011;3827;49.928;8.548;2023-03-21T06:23:36;8.00;;;7.20;;
7571;SDS011;3827;49.928;8.548;2023-03-21T06:26:03;7.20;;;5.88;;
7571;SDS011;3827;49.928;8.548;2023-03-21T06:28:32;8.07;;;6.00;;
7571;SDS011;3827;49.928;8.548;2023-03-21T06:30:59;6.28;;;5.68;;
7571;SDS011;3827;49.928;8.548;2023-03-21T06:33:26;6.75;;;4.93;;
7571;SDS011;3827;49.928;8.548;2023-03-21T06:35:53;5.85;;;4.78;;
7571;SDS011;3827;49.928;8.548;2023-03-21T06:38:21;5.75;;;5.25;;
7571;SDS011;3827;49.928;8.548;2023-03-21T06:40:48;6.07;;;5.22;;
7571;SDS011;3827;49.928;8.548;2023-03-21T06:43:15;6.38;;;5.70;;
7571;SDS011;3827;49.928;8.548;2023-03-21T06:45:43;6.30;;;5.20;;
7571;SDS011;3827;49.928;8.548;2023-03-21T06:48:10;6.68;;;5.05;;
7571;SDS011;3827;49.928;8.548;2023-03-21T06:50:37;7.40;;;5.25;;
7571;SDS011;3827;49.928;8.548;2023-03-21T06:53:04;6.60;;;5.18;;
7571;SDS011;3827;49.928;8.548;2023-03-21T06:55:31;6.97;;;4.82;;
7571;SDS011;3827;49.928;8.548;2023-03-21T06:57:58;5.65;;;4.85;;
7571;SDS011;3827;49.928;8.548;2023-03-21T07:00:25;5.60;;;5.07;;
7571;SDS011;3827;49.928;8.548;2023-03-21T07:02:53;6.07;;;5.30;;
7571;SDS011;3827;49.928;8.548;2023-03-21T07:05:20;5.25;;;4.75;;
7571;SDS011;3827;49.928;8.548;2023-03-21T07:07:47;5.70;;;4.80;;
7571;SDS011;3827;49.928;8.548;2023-03-21T07:10:14;5.55;;;4.65;;
7571;SDS011;3827;49.928;8.548;2023-03-21T07:12:41;5.32;;;4.68;;
7571;SDS011;3827;49.928;8.548;2023-03-21T07:15:08;6.07;;;4.78;;
7571;SDS011;3827;49.928;8.548;2023-03-21T07:17:35;5.63;;;4.68;;
7571;SDS011;3827;49.928;8.548;2023-03-21T07:20:04;5.32;;;4.40;;
7571;SDS011;3827;49.928;8.548;2023-03-21T07:22:32;5.93;;;5.37;;
7571;SDS011;3827;49.928;8.548;2023-03-21T07:24:59;7.68;;;5.25;;
7571;SDS011;3827;49.928;8.548;2023-03-21T07:27:26;5.80;;;4.53;;
7571;SDS011;3827;49.928;8.548;2023-03-21T07:29:53;6.82;;;4.50;;
7571;SDS011;3827;49.928;8.548;2023-03-21T07:32:20;6.03;;;4.32;;
7571;SDS011;3827;49.928;8.548;2023-03-21T07:34:47;5.05;;;4.30;;
7571;SDS011;3827;49.928;8.548;2023-03-21T07:37:15;6.57;;;4.55;;
7571;SDS011;3827;49.928;8.548;2023-03-21T07:39:42;5.88;;;4.10;;
7571;SDS011;3827;49.928;8.548;2023-03-21T07:42:09;4.82;;;3.80;;
7571;SDS011;3827;49.928;8.548;2023-03-21T07:44:36;6.93;;;4.28;;
7571;SDS011;3827;49.928;8.548;2023-03-21T07:47:03;6.80;;;4.30;;
7571;SDS011;3827;49.928;8.548;2023-03-21T07:49:30;5.40;;;4.13;;
7571;SDS011;3827;49.928;8.548;2023-03-21T07:51:57;5.32;;;4.40;;
7571;SDS011;3827;49.928;8.548;2023-03-21T07:54:27;6.83;;;4.57;;
7571;SDS011;3827;49.928;8.548;2023-03-21T07:56:54;8.07;;;4.68;;
7571;SDS011;3827;49.928;8.548;2023-03-21T07:59:21;4.57;;;4.15;;
7571;SDS011;3827;49.928;8.548;2023-03-21T08:01:48;5.43;;;4.10;;
7571;SDS011;3827;49.928;8.548;2023-03-21T08:04:15;5.10;;;4.13;;
7571;SDS011;3827;49.928;8.548;2023-03-21T08:06:42;6.13;;;4.38;;
7571;SDS011;3827;49.928;8.548;2023-03-21T08:09:09;5.83;;;4.47;;
7571;SDS011;3827;49.928;8.548;2023-03-21T08:11:38;7.47;;;4.40;;
7571;SDS011;3827;49.928;8.548;2023-03-21T08:14:05;6.95;;;4.60;;
7571;SDS011;3827;49.928;8.548;2023-03-21T08:16:32;6.72;;;4.80;;
7571;SDS011;3827;49.928;8.548;2023-03-21T08:18:59;5.53;;;4.25;;
7571;SDS011;3827;49.928;8.548;2023-03-21T08:21:26;4.70;;;4.13;;
7571;SDS011;3827;49.928;8.548;2023-03-21T08:23:53;4.55;;;3.95;;
7571;SDS011;3827;49.928;8.548;2023-03-21T08:26:19;5.30;;;4.28;;
7571;SDS011;3827;49.928;8.548;2023-03-21T08:28:51;5.40;;;4.18;;
7571;SDS011;3827;49.928;8.548;2023-03-21T08:31:18;7.30;;;4.40;;
7571;SDS011;3827;49.928;8.548;2023-03-21T08:33:46;4.97;;;4.10;;
7571;SDS011;3827;49.928;8.548;2023-03-21T08:36:15;6.68;;;4.45;;
7571;SDS011;3827;49.928;8.548;2023-03-21T08:38:41;6.60;;;4.15;;
7571;SDS011;3827;49.928;8.548;2023-03-21T08:41:10;6.70;;;4.30;;
7571;SDS011;3827;49.928;8.548;2023-03-21T08:43:37;7.45;;;4.10;;
7571;SDS011;3827;49.928;8.548;2023-03-21T08:46:05;6.15;;;4.07;;
7571;SDS011;3827;49.928;8.548;2023-03-21T08:48:32;6.28;;;4.38;;
7571;SDS011;3827;49.928;8.548;2023-03-21T08:51:02;5.18;;;3.85;;
7571;SDS011;3827;49.928;8.548;2023-03-21T08:53:29;6.85;;;4.22;;
7571;SDS011;3827;49.928;8.548;2023-03-21T08:55:56;5.63;;;3.70;;
7571;SDS011;3827;49.928;8.548;2023-03-21T08:58:23;5.07;;;4.00;;
7571;SDS011;3827;49.928;8.548;2023-03-21T09:00:50;6.40;;;4.00;;
7571;SDS011;3827;49.928;8.548;2023-03-21T09:03:18;5.18;;;3.92;;
7571;SDS011;3827;49.928;8.548;2023-03-21T09:05:45;4.95;;;3.92;;
7571;SDS011;3827;49.928;8.548;2023-03-21T09:08:12;5.33;;;3.57;;
7571;SDS011;3827;49.928;8.548;2023-03-21T09:10:38;5.47;;;4.00;;
7571;SDS011;3827;49.928;8.548;2023-03-21T09:13:05;4.78;;;3.47;;
7571;SDS011;3827;49.928;8.548;2023-03-21T09:15:32;5.22;;;3.83;;
7571;SDS011;3827;49.928;8.548;2023-03-21T09:18:00;5.82;;;3.53;;
7571;SDS011;3827;49.928;8.548;2023-03-21T09:20:38;6.43;;;3.28;;
7571;SDS011;3827;49.928;8.548;2023-03-21T09:23:07;5.00;;;3.33;;
7571;SDS011;3827;49.928;8.548;2023-03-21T09:25:34;8.25;;;3.60;;
7571;SDS011;3827;49.928;8.548;2023-03-21T09:28:02;5.38;;;3.50;;
7571;SDS011;3827;49.928;8.548;2023-03-21T09:30:30;4.03;;;3.08;;
7571;SDS011;3827;49.928;8.548;2023-03-21T09:32:59;6.60;;;3.13;;
7571;SDS011;3827;49.928;8.548;2023-03-21T09:35:28;4.68;;;3.25;;
7571;SDS011;3827;49.928;8.548;2023-03-21T09:37:56;5.55;;;3.42;;
7571;SDS011;3827;49.928;8.548;2023-03-21T09:40:29;6.05;;;3.30;;
7571;SDS011;3827;49.928;8.548;2023-03-21T09:43:07;5.40;;;3.63;;
7571;SDS011;3827;49.928;8.548;2023-03-21T09:45:46;6.35;;;3.42;;
7571;SDS011;3827;49.928;8.548;2023-03-21T09:48:18;5.38;;;2.95;;
7571;SDS011;3827;49.928;8.548;2023-03-21T09:50:56;6.07;;;3.28;;
7571;SDS011;3827;49.928;8.548;2023-03-21T09:53:26;4.28;;;3.58;;
7571;SDS011;3827;49.928;8.548;2023-03-21T09:55:57;6.28;;;3.20;;
7571;SDS011;3827;49.928;8.548;2023-03-21T09:58:27;4.53;;;3.38;;
7571;SDS011;3827;49.928;8.548;2023-03-21T10:00:59;5.32;;;3.35;;
7571;SDS011;3827;49.928;8.548;2023-03-21T10:03:32;5.67;;;3.07;;
7571;SDS011;3827;49.928;8.548;2023-03-21T10:06:01;4.30;;;2.83;;
7571;SDS011;3827;49.928;8.548;2023-03-21T10:08:34;4.45;;;3.05;;
7571;SDS011;3827;49.928;8.548;2023-03-21T10:11:05;3.95;;;3.13;;
7571;SDS011;3827;49.928;8.548;2023-03-21T10:13:38;4.72;;;3.33;;
7571;SDS011;3827;49.928;8.548;2023-03-21T10:16:09;6.97;;;3.58;;
7571;SDS011;3827;49.928;8.548;2023-03-21T10:18:39;5.63;;;3.53;;
7571;SDS011;3827;49.928;8.548;2023-03-21T10:21:10;4.50;;;3.40;;
7571;SDS011;3827;49.928;8.548;2023-03-21T10:23:45;6.10;;;3.58;;
7571;SDS011;3827;49.928;8.548;2023-03-21T10:26:12;4.45;;;3.40;;
7571;SDS011;3827;49.928;8.548;2023-03-21T10:28:40;6.20;;;3.60;;
7571;SDS011;3827;49.928;8.548;2023-03-21T10:31:08;5.35;;;3.25;;
7571;SDS011;3827;49.928;8.548;2023-03-21T10:33:41;3.90;;;2.88;;
7571;SDS011;3827;49.928;8.548;2023-03-21T10:36:11;4.35;;;3.25;;
7571;SDS011;3827;49.928;8.548;2023-03-21T10:38:43;6.72;;;3.10;;
7571;SDS011;3827;49.928;8.548;2023-03-21T10:41:13;4.47;;;3.35;;
7571;SDS011;3827;49.928;8.548;2023-03-21T10:43:41;5.63;;;3.53;;
7571;SDS011;3827;49.928;8.548;2023-03-21T10:46:11;4.85;;;3.17;;
7571;SDS011;3827;49.928;8.548;2023-03-21T10:48:41;5.72;;;3.60;;
7571;SDS011;3827;49.928;8.548;2023-03-21T10:51:11;6.00;;;4.00;;
7571;SDS011;3827;49.928;8.548;2023-03-21T10:53:44;5.15;;;3.60;;
7571;SDS011;3827;49.928;8.548;2023-03-21T10:56:15;5.20;;;3.88;;
7571;SDS011;3827;49.928;8.548;2023-03-21T10:58:43;5.67;;;3.73;;
7571;SDS011;3827;49.928;8.548;2023-03-21T11:01:13;7.05;;;4.03;;
7571;SDS011;3827;49.928;8.548;2023-03-21T11:03:53;5.00;;;4.17;;
7571;SDS011;3827;49.928;8.548;2023-03-21T11:06:25;5.07;;;4.57;;
7571;SDS011;3827;49.928;8.548;2023-03-21T11:08:57;6.25;;;3.70;;
7571;SDS011;3827;49.928;8.548;2023-03-21T11:11:27;6.23;;;3.90;;
7571;SDS011;3827;49.928;8.548;2023-03-21T11:13:59;5.40;;;3.70;;
7571;SDS011;3827;49.928;8.548;2023-03-21T11:16:33;4.70;;;3.80;;
7571;SDS011;3827;49.928;8.548;2023-03-21T11:19:11;4.28;;;3.42;;
7571;SDS011;3827;49.928;8.548;2023-03-21T11:21:39;5.53;;;3.72;;
7571;SDS011;3827;49.928;8.548;2023-03-21T11:24:10;4.88;;;3.50;;
7571;SDS011;3827;49.928;8.548;2023-03-21T11:26:39;5.47;;;3.92;;
7571;SDS011;3827;49.928;8.548;2023-03-21T11:29:25;4.30;;;3.85;;
7571;SDS011;3827;49.928;8.548;2023-03-21T11:31:56;4.20;;;3.80;;
7571;SDS011;3827;49.928;8.548;2023-03-21T11:34:27;5.97;;;4.10;;
7571;SDS011;3827;49.928;8.548;2023-03-21T11:36:58;6.75;;;4.25;;
7571;SDS011;3827;49.928;8.548;2023-03-21T11:39:29;7.55;;;4.30;;
7571;SDS011;3827;49.928;8.548;2023-03-21T11:41:58;6.72;;;4.57;;
7571;SDS011;3827;49.928;8.548;2023-03-21T11:44:26;6.38;;;4.40;;
7571;SDS011;3827;49.928;8.548;2023-03-21T11:46:55;5.13;;;3.83;;
7571;SDS011;3827;49.928;8.548;2023-03-21T11:49:22;5.75;;;4.57;;
7571;SDS011;3827;49.928;8.548;2023-03-21T11:51:52;6.43;;;4.30;;
7571;SDS011;3827;49.928;8.548;2023-03-21T11:54:43;5.53;;;4.25;;
7571;SDS011;3827;49.928;8.548;2023-03-21T11:57:20;5.75;;;4.57;;
7571;SDS011;3827;49.928;8.548;2023-03-21T11:59:57;6.47;;;4.20;;
7571;SDS011;3827;49.928;8.548;2023-03-21T12:02:40;5.90;;;4.65;;
7571;SDS011;3827;49.928;8.548;2023-03-21T12:05:22;4.57;;;3.92;;
7571;SDS011;3827;49.928;8.548;2023-03-21T12:07:55;3.83;;;3.30;;
7571;SDS011;3827;49.928;8.548;2023-03-21T12:10:31;4.13;;;3.13;;
7571;SDS011;3827;49.928;8.548;2023-03-21T12:16:02;2.83;;;2.15;;
7571;SDS011;3827;49.928;8.548;2023-03-21T12:18:44;3.08;;;2.13;;
7571;SDS011;3827;49.928;8.548;2023-03-21T12:21:22;3.13;;;2.10;;
7571;SDS011;3827;49.928;8.548;2023-03-21T12:23:57;3.35;;;2.90;;
7571;SDS011;3827;49.928;8.548;2023-03-21T12:26:30;4.50;;;2.90;;
7571;SDS011;3827;49.928;8.548;2023-03-21T12:29:06;4.60;;;3.20;;
7571;SDS011;3827;49.928;8.548;2023-03-21T12:31:43;4.57;;;3.15;;
7571;SDS011;3827;49.928;8.548;2023-03-21T12:34:23;5.13;;;3.38;;
7571;SDS011;3827;49.928;8.548;2023-03-21T12:37:12;4.03;;;3.60;;
7571;SDS011;3827;49.928;8.548;2023-03-21T12:39:47;4.18;;;3.53;;
7571;SDS011;3827;49.928;8.548;2023-03-21T12:42:30;4.35;;;3.65;;
7571;SDS011;3827;49.928;8.548;2023-03-21T12:45:23;4.55;;;3.67;;
7571;SDS011;3827;49.928;8.548;2023-03-21T12:47:55;4.40;;;3.47;;
7571;SDS011;3827;49.928;8.548;2023-03-21T12:50:29;5.78;;;3.47;;
7571;SDS011;3827;49.928;8.548;2023-03-21T12:53:04;4.15;;;3.50;;
7571;SDS011;3827;49.928;8.548;2023-03-21T12:55:37;5.60;;;3.77;;
7571;SDS011;3827;49.928;8.548;2023-03-21T12:58:09;6.07;;;4.30;;
7571;SDS011;3827;49.928;8.548;2023-03-21T13:00:43;3.95;;;3.55;;
7571;SDS011;3827;49.928;8.548;2023-03-21T13:03:13;4.97;;;3.93;;
7571;SDS011;3827;49.928;8.548;2023-03-21T13:05:46;5.53;;;3.55;;
7571;SDS011;3827;49.928;8.548;2023-03-21T13:08:16;5.63;;;3.77;;
7571;SDS011;3827;49.928;8.548;2023-03-21T13:10:48;4.10;;;3.55;;
7571;SDS011;3827;49.928;8.548;2023-03-21T13:13:18;4.17;;;3.77;;
7571;SDS011;3827;49.928;8.548;2023-03-21T13:15:56;5.50;;;3.80;;
7571;SDS011;3827;49.928;8.548;2023-03-21T13:18:31;5.37;;;3.67;;
7571;SDS011;3827;49.928;8.548;2023-03-21T13:21:03;5.28;;;3.58;;
7571;SDS011;3827;49.928;8.548;2023-03-21T13:23:38;4.40;;;3.42;;
7571;SDS011;3827;49.928;8.548;2023-03-21T13:26:07;4.78;;;3.80;;
7571;SDS011;3827;49.928;8.548;2023-03-21T13:28:37;5.25;;;3.92;;
7571;SDS011;3827;49.928;8.548;2023-03-21T13:31:13;5.53;;;4.10;;
7571;SDS011;3827;49.928;8.548;2023-03-21T13:33:45;5.10;;;3.67;;
7571;SDS011;3827;49.928;8.548;2023-03-21T13:36:14;4.68;;;4.15;;
7571;SDS011;3827;49.928;8.548;2023-03-21T13:38:43;3.90;;;3.60;;
7571;SDS011;3827;49.928;8.548;2023-03-21T13:41:16;5.57;;;3.95;;
7571;SDS011;3827;49.928;8.548;2023-03-21T13:43:51;5.68;;;4.60;;
7571;SDS011;3827;49.928;8.548;2023-03-21T13:49:24;5.68;;;4.15;;
7571;SDS011;3827;49.928;8.548;2023-03-21T13:51:53;5.32;;;4.20;;
7571;SDS011;3827;49.928;8.548;2023-03-21T13:54:22;7.57;;;4.05;;
7571;SDS011;3827;49.928;8.548;2023-03-21T13:56:56;6.03;;;4.50;;
7571;SDS011;3827;49.928;8.548;2023-03-21T13:59:42;5.40;;;4.70;;
7571;SDS011;3827;49.928;8.548;2023-03-21T14:04:59;5.65;;;5.07;;
7571;SDS011;3827;49.928;8.548;2023-03-21T14:07:28;5.60;;;5.20;;
7571;SDS011;3827;49.928;8.548;2023-03-21T14:09:59;6.43;;;5.83;;
7571;SDS011;3827;49.928;8.548;2023-03-21T14:12:28;8.48;;;6.00;;
7571;SDS011;3827;49.928;8.548;2023-03-21T14:15:05;8.00;;;6.40;;
7571;SDS011;3827;49.928;8.548;2023-03-21T14:17:47;8.32;;;6.13;;
7571;SDS011;3827;49.928;8.548;2023-03-21T14:20:18;8.45;;;7.43;;
7571;SDS011;3827;49.928;8.548;2023-03-21T14:22:47;6.65;;;6.07;;
7571;SDS011;3827;49.928;8.548;2023-03-21T14:25:16;7.43;;;6.38;;
7571;SDS011;3827;49.928;8.548;2023-03-21T14:27:46;6.82;;;6.18;;
7571;SDS011;3827;49.928;8.548;2023-03-21T14:30:20;6.90;;;6.25;;
7571;SDS011;3827;49.928;8.548;2023-03-21T14:32:49;7.57;;;6.75;;
7571;SDS011;3827;49.928;8.548;2023-03-21T14:35:21;7.30;;;6.57;;
7571;SDS011;3827;49.928;8.548;2023-03-21T14:37:50;7.53;;;6.63;;
7571;SDS011;3827;49.928;8.548;2023-03-21T14:40:19;7.82;;;6.85;;
7571;SDS011;3827;49.928;8.548;2023-03-21T14:42:48;7.40;;;6.70;;
7571;SDS011;3827;49.928;8.548;2023-03-21T14:45:17;7.78;;;6.72;;
7571;SDS011;3827;49.928;8.548;2023-03-21T14:47:55;7.83;;;7.10;;
7571;SDS011;3827;49.928;8.548;2023-03-21T14:50:24;8.40;;;7.50;;
7571;SDS011;3827;49.928;8.548;2023-03-21T14:52:57;8.75;;;7.95;;
7571;SDS011;3827;49.928;8.548;2023-03-21T14:55:25;8.50;;;7.63;;
7571;SDS011;3827;49.928;8.548;2023-03-21T14:57:53;7.88;;;7.10;;
7571;SDS011;3827;49.928;8.548;2023-03-21T15:00:23;8.05;;;7.35;;
7571;SDS011;3827;49.928;8.548;2023-03-21T15:02:53;8.50;;;7.70;;
7571;SDS011;3827;49.928;8.548;2023-03-21T15:05:25;9.10;;;8.20;;
7571;SDS011;3827;49.928;8.548;2023-03-21T15:07:55;7.90;;;7.20;;
7571;SDS011;3827;49.928;8.548;2023-03-21T15:10:24;8.50;;;7.70;;
7571;SDS011;3827;49.928;8.548;2023-03-21T15:12:53;8.43;;;7.72;;
7571;SDS011;3827;49.928;8.548;2023-03-21T15:15:23;8.80;;;7.78;;
7571;SDS011;3827;49.928;8.548;2023-03-21T15:17:52;8.53;;;7.63;;
7571;SDS011;3827;49.928;8.548;2023-03-21T15:20:23;8.07;;;7.28;;
7571;SDS011;3827;49.928;8.548;2023-03-21T15:22:53;8.35;;;7.57;;
7571;SDS011;3827;49.928;8.548;2023-03-21T15:25:22;8.25;;;7.45;;
7571;SDS011;3827;49.928;8.548;2023-03-21T15:27:53;8.40;;;7.53;;
7571;SDS011;3827;49.928;8.548;2023-03-21T15:30:23;7.72;;;6.93;;
7571;SDS011;3827;49.928;8.548;2023-03-21T15:32:53;8.07;;;6.90;;
7571;SDS011;3827;49.928;8.548;2023-03-21T15:35:20;8.13;;;7.20;;
7571;SDS011;3827;49.928;8.548;2023-03-21T15:37:53;7.55;;;6.75;;
7571;SDS011;3827;49.928;8.548;2023-03-21T15:40:22;8.65;;;6.63;;
7571;SDS011;3827;49.928;8.548;2023-03-21T15:43:02;7.65;;;6.85;;
7571;SDS011;3827;49.928;8.548;2023-03-21T15:45:32;7.63;;;6.93;;
7571;SDS011;3827;49.928;8.548;2023-03-21T15:48:00;7.90;;;6.70;;
7571;SDS011;3827;49.928;8.548;2023-03-21T15:50:33;7.63;;;6.95;;
7571;SDS011;3827;49.928;8.548;2023-03-21T15:53:03;7.10;;;6.40;;